createdAt,value
2023-01-28T00:01:50.823Z,13.70
2023-01-28T00:06:53.792Z,13.40
2023-01-28T00:11:56.279Z,14.35
2023-01-28T00:16:58.772Z,14.50
2023-01-28T00:22:01.159Z,13.03
2023-01-28T00:27:03.607Z,12.57
2023-01-28T00:32:06.639Z,13.63
2023-01-28T00:37:10.168Z,14.02
2023-01-28T00:42:12.564Z,13.38
2023-01-28T00:47:15.427Z,13.40
2023-01-28T00:52:17.849Z,13.95
2023-01-28T00:57:20.365Z,12.83
2023-01-28T01:02:22.979Z,14.70
2023-01-28T01:07:32.370Z,14.43
2023-01-28T01:12:34.904Z,11.73
2023-01-28T01:17:38.664Z,12.60
2023-01-28T01:22:41.183Z,14.73
2023-01-28T01:27:46.018Z,12.77
2023-01-28T01:32:48.469Z,13.30
2023-01-28T01:37:50.855Z,13.70
2023-01-28T01:42:53.464Z,13.82
2023-01-28T01:48:10.218Z,12.10
2023-01-28T01:53:16.008Z,12.60
2023-01-28T01:58:21.948Z,11.68
2023-01-28T02:03:57.054Z,10.70
2023-01-28T02:08:59.537Z,12.85
2023-01-28T02:14:04.373Z,11.77
2023-01-28T02:19:08.191Z,10.27
2023-01-28T02:24:44.574Z,12.38
2023-01-28T02:29:52.621Z,10.77
2023-01-28T02:35:07.728Z,10.48
2023-01-28T02:40:13.644Z,11.10
2023-01-28T02:45:23.147Z,10.85
2023-01-28T02:50:33.541Z,10.50
2023-01-28T02:56:02.655Z,9.13
2023-01-28T03:01:10.935Z,9.50
2023-01-28T03:06:18.231Z,9.70
2023-01-28T03:11:39.550Z,11.65
2023-01-28T03:17:00.882Z,11.65
2023-01-28T03:22:22.197Z,11.40
2023-01-28T03:28:28.238Z,11.10
2023-01-28T03:33:50.067Z,10.37
2023-01-28T03:38:52.509Z,10.35
2023-01-28T03:43:56.143Z,10.35
2023-01-28T03:48:58.616Z,9.67
2023-01-28T03:54:01.024Z,9.15
2023-01-28T03:59:07.070Z,9.43
2023-01-28T04:04:23.775Z,9.40
2023-01-28T04:09:26.708Z,10.20
2023-01-28T04:14:29.352Z,8.90
2023-01-28T04:19:37.335Z,8.55
2023-01-28T04:24:39.934Z,8.57
2023-01-28T04:29:42.393Z,7.72
2023-01-28T04:34:44.889Z,9.27
2023-01-28T04:39:47.247Z,9.00
2023-01-28T04:44:49.725Z,10.40
2023-01-28T04:49:52.276Z,9.53
2023-01-28T04:54:54.715Z,8.88
2023-01-28T04:59:57.154Z,9.05
2023-01-28T05:05:01.660Z,7.90
2023-01-28T05:10:04.685Z,8.25
2023-01-28T05:15:07.995Z,8.03
2023-01-28T05:20:12.455Z,8.70
2023-01-28T05:25:15.226Z,8.50
2023-01-28T05:30:21.746Z,7.70
2023-01-28T05:35:24.502Z,8.75
2023-01-28T05:40:27.165Z,9.00
2023-01-28T05:45:29.713Z,8.73
2023-01-28T05:50:32.135Z,9.07
2023-01-28T05:55:34.631Z,9.40
2023-01-28T06:00:37.090Z,7.90
2023-01-28T06:05:39.595Z,8.63
2023-01-28T06:10:42.022Z,9.75
2023-01-28T06:15:44.557Z,8.55
2023-01-28T06:20:49.047Z,8.87
2023-01-28T06:25:58.554Z,9.43
2023-01-28T06:31:01.101Z,9.13
2023-01-28T06:36:04.965Z,10.30
2023-01-28T06:41:07.450Z,11.57
2023-01-28T06:46:10.345Z,12.33
2023-01-28T06:51:12.739Z,11.02
2023-01-28T06:56:15.146Z,11.90
2023-01-28T07:01:17.567Z,12.05
2023-01-28T07:06:20.054Z,12.43
2023-01-28T07:11:22.576Z,12.33
2023-01-28T07:16:25.133Z,10.77
2023-01-28T07:21:27.621Z,11.07
2023-01-28T07:26:30.047Z,12.45
2023-01-28T07:31:32.585Z,11.30
2023-01-28T07:36:35.094Z,11.97
2023-01-28T07:41:37.570Z,14.85
2023-01-28T07:46:40.125Z,14.87
2023-01-28T07:51:42.713Z,13.45
2023-01-28T07:56:45.574Z,15.00
2023-01-28T08:01:48.064Z,12.63
2023-01-28T08:06:52.333Z,11.48
2023-01-28T08:11:54.763Z,12.67
2023-01-28T08:16:58.422Z,11.35
2023-01-28T08:22:00.827Z,17.30
2023-01-28T08:27:04.225Z,13.27
2023-01-28T08:32:07.064Z,13.70
2023-01-28T08:37:09.556Z,14.60
2023-01-28T08:42:12.052Z,14.75
2023-01-28T08:47:15.179Z,12.20
2023-01-28T08:52:17.695Z,16.40
2023-01-28T08:57:20.118Z,11.70
2023-01-28T09:02:31.600Z,12.00
2023-01-28T09:07:36.126Z,12.82
2023-01-28T09:12:38.660Z,12.40
2023-01-28T09:17:41.168Z,11.23
2023-01-28T09:22:43.739Z,13.32
2023-01-28T09:27:46.203Z,10.90
2023-01-28T09:32:51.792Z,10.40
2023-01-28T09:37:58.619Z,12.25
2023-01-28T09:43:41.042Z,16.40
2023-01-28T09:48:52.400Z,15.57
2023-01-28T09:53:58.600Z,15.23
2023-01-28T09:59:18.331Z,23.13
2023-01-28T10:04:24.272Z,15.77
2023-01-28T10:09:41.550Z,13.50
2023-01-28T10:14:58.958Z,15.70
2023-01-28T10:20:16.722Z,13.60
2023-01-28T10:25:29.373Z,12.05
2023-01-28T10:30:33.376Z,12.57
2023-01-28T10:35:41.513Z,17.63
2023-01-28T10:40:44.637Z,16.52
2023-01-28T10:45:58.788Z,13.83
2023-01-28T10:51:05.240Z,15.38
2023-01-28T10:56:12.479Z,16.38
2023-01-28T11:01:15.138Z,17.50
2023-01-28T11:06:29.347Z,13.48
2023-01-28T11:11:31.808Z,15.37
2023-01-28T11:16:34.222Z,16.90
2023-01-28T11:21:36.742Z,13.88
2023-01-28T11:26:40.272Z,13.57
2023-01-28T11:31:44.687Z,15.30
2023-01-28T11:36:52.620Z,18.00
2023-01-28T11:41:55.628Z,15.70
2023-01-28T11:47:17.019Z,16.00
2023-01-28T11:53:02.668Z,15.93
2023-01-28T11:58:21.785Z,17.25
2023-01-28T12:03:40.544Z,16.70
2023-01-28T12:09:01.295Z,19.17
2023-01-28T12:14:16.552Z,17.13
2023-01-28T12:19:42.040Z,19.07
2023-01-28T12:25:11.221Z,17.13
2023-01-28T12:30:19.390Z,16.77
2023-01-28T12:35:51.228Z,15.73
2023-01-28T12:41:10.761Z,17.55
2023-01-28T12:46:55.819Z,19.93
2023-01-28T12:52:06.066Z,19.25
2023-01-28T12:57:23.640Z,21.20
2023-01-28T13:02:35.390Z,17.67
2023-01-28T13:08:04.430Z,14.07
2023-01-28T13:13:07.507Z,16.43
2023-01-28T13:18:31.304Z,17.55
2023-01-28T13:23:46.503Z,16.83
2023-01-28T13:28:51.036Z,16.67
2023-01-28T13:33:56.498Z,16.45
2023-01-28T13:39:22.940Z,18.63
2023-01-28T13:44:30.210Z,20.58
2023-01-28T13:50:06.952Z,17.47
2023-01-28T13:55:12.613Z,15.55
2023-01-28T14:00:29.840Z,16.55
2023-01-28T14:05:36.973Z,19.23
2023-01-28T14:10:45.203Z,18.02
2023-01-28T14:16:14.932Z,18.80
